Briefing drone pour Saint-jean-de-la-ruelle

Rechercher une autre localisation

Conditions de vol :


Nous sommes le : Vendredi 14 mai 2021
Il est 03:32 UTC (05:32 LT)

Lever de soleil : 03:48 UTC (05:48 LT)
Coucher de soleil : 19:49 UTC (21:49 LT)

Météo

L'essentiel des conditions de vol

VIGILANCE MÉTÉO FRANCE - Loiret (45)
Vigilance Jaune : Orages
CARTE TEMSI
CARTES DES FRONTS
METAR de LFOJ
LFOJ 140300Z AUTO 19006KT CAVOK 08/07 Q1007 TEMPO 4000 BR BKN002

Date d'émission: 14/05/2021
Heure d'émission: 03:00 UTC
Vent: 190° pour 6 KT (11 km/h)
Visibilité horizontale: > 10 km
Plafond : Plafond et visibilité OK (CAVOK)
Température: 8 °C
Point de rosée: 7 °C
Humidité: 93%
Pression (QNH): 1007 hPa

Temporairement:

Visibilité horizontale : 4000 m
Plafond :
- Nuages morcelés à 200ft (61m)
Conditions : Brume
TAF de LFOJ
LFOJ 132208Z 1322/1421 CNL

Conditions prévues :

Heure d'émission : Bulletin éffectué le 13 à 22:00 UTC
Prévision : Valide du 13 a 22:00 UTC au 14 a 21:00 UTC
Nuages : à 0ft (0 m)
WEBCAM POUR SAINT-JEAN-DE-LA-RUELLE

Réglementation

Voler en sécurité

CARTES AERONAUTIQUE 1/500.000
CARTES VAC (LFOJ)
SUP AIP




Chargement des AIP...
NOTAM (SAINT-JEAN-DE-LA-RUELLE + Terrain à proximité / FIR )




Chargement des NOTAMS...
CONTACT PREFECTURE 45


Avertissement : Les données mises à disposition sont indicatives. Oxygène Drone ne pourra être tenu responsable de dégâts causés aux biens et aux personnes.